Главная страница
METAR-TAF:

METAR-TAF

Аэропорты :

Острова Яп, Микронезия

Яп

широта: 09-29N, долгота: 138-05E, высота над уровнем моря: 28 м

Текущие метеонаблюдения

Эта сводка был подготовлена 18 минут назад, в 18:51 UTC
Ветер 4 Узел переменных направлений
Температура 27°C
Влажность 84%
Давление 1007 hPa
Видимость: 19.3 км
небольшая облачность на высоте 1600 фута
Рассеянная облачность на высоте 30000 фута

METAR: PTYA 231851Z VRB04KT 12SM FEW016 BKN300 27/24 A2975 RMK SLP074 T02690242

Время: 05:09 (19:09 UTC)

Прогноз

Эта сводка был подготовлена 1 час и 49 минут назад, в 17:20 UTC
Прогноз действительный с 23-го 18 UTC до 24-го 18 UTC
Ветер 9 Узел от восточный
Видимость: 10 км
небольшая облачность на высоте 1600 фута
Отдельные облака на высоте 13000 фута
ливни в окрестностях

TAF: PTYA 231720Z 2318/2418 09009KT P6SM VCSH FEW016 SCT130

Метеонаблюдения и прогнозы для более 4000 аэропортов (сводки METAR и TAF).

Имеющиеся станции представлены на карте желтыми и красными точками.

Чтобы увидеть название станции, наведите на нее мышь.

Затем щелкните, чтобы увидеть метеонаблюдения и метеопрогнозы.

Управление картой: чтобы увеличить масштаб, щелкните зеленые кнопки с черным крестиком; чтобы уменьшить масштаб, щелкните зеленую кнопку с тире; для просмотра соседних карт щелкайте зеленые стрелки.


METAR-TAF: